Fort Saint John, Canada
Current Conditions -  °F | °C
As of 12:00 PM on Thursday 27 Nov 2014 (Local Time) from CYXJ Reporting Station
Light Snow Light Snow  
Wind Chill: -21°   Ceiling: 1400
Heat Index: -2°   Visibility: 2mi
Dew Point: -9°   Wind: 13mph
Humidity: 71%   Direction: 360°N
Pressure: 30.24"   Gusts: NA
Location:  56.25°N, 120.85°W
Report Text: CYXJ 271900Z 36011KT 2SM -SN OVC014 M19/M23 A3024 RMK SC8 SLP307
Loading
Personal Weather Stations






























Interactive Weather Map New forecast layout! Learn more

10-Day Weather Forecast

Advertisements
Track Severe Weather on mobile